Time,TemperatureF,DewpointF,PressureIn,WindDirection,WindDirectionDegrees,WindSpeedMPH,WindSpeedGustMPH,Humidity,HourlyPrecipIn,Conditions,Clouds,dailyrainin,SoftwareType,DateUTC
2013-04-10 00:07:00,36.6,35.0,30.31,West,271,0.0,-999.0,92,-99.99,,,0.00,weatherlink.com 1.10,2013-04-10 07:07:00,
2013-04-10 00:22:00,36.7,35.0,30.31,West,271,0.0,-999.0,92,-99.99,,,0.00,weatherlink.com 1.10,2013-04-10 07:22:00,
2013-04-10 00:37:00,36.9,35.0,30.31,West,271,0.0,-999.0,92,-99.99,,,0.00,weatherlink.com 1.10,2013-04-10 07:37:00,
2013-04-10 00:52:00,37.0,35.0,30.30,West,271,0.0,-999.0,91,-99.99,,,0.00,weatherlink.com 1.10,2013-04-10 07:52:00,
2013-04-10 01:07:00,37.2,35.0,30.30,West,271,0.0,-999.0,91,-99.99,,,0.00,weatherlink.com 1.10,2013-04-10 08:07:00,
2013-04-10 01:22:00,37.5,35.0,30.30,West,271,0.0,-999.0,91,-99.99,,,0.00,weatherlink.com 1.10,2013-04-10 08:22:00,
2013-04-10 01:37:00,37.7,35.0,30.30,West,271,0.0,-999.0,91,-99.99,,,0.00,weatherlink.com 1.10,2013-04-10 08:37:00,
2013-04-10 01:53:00,37.7,35.0,30.29,West,271,0.0,-999.0,91,-99.99,,,0.00,weatherlink.com 1.10,2013-04-10 08:53:00,
2013-04-10 02:08:00,37.9,36.0,30.29,West,271,0.0,-999.0,91,-99.99,,,0.00,weatherlink.com 1.10,2013-04-10 09:08:00,
2013-04-10 02:23:00,37.9,36.0,30.28,West,271,0.0,-999.0,91,-99.99,,,0.00,weatherlink.com 1.10,2013-04-10 09:23:00,
2013-04-10 02:38:00,37.9,35.0,30.28,West,271,0.0,-999.0,90,-99.99,,,0.00,weatherlink.com 1.10,2013-04-10 09:38:00,
2013-04-10 02:53:00,38.0,35.0,30.27,West,271,0.0,-999.0,90,-99.99,,,0.00,weatherlink.com 1.10,2013-04-10 09:53:00,
2013-04-10 03:08:00,38.5,35.0,30.27,West,271,0.0,-999.0,88,-99.99,,,0.00,weatherlink.com 1.10,2013-04-10 10:08:00,
2013-04-10 03:23:00,38.7,36.0,30.27,West,271,0.0,-999.0,90,-99.99,,,0.00,weatherlink.com 1.10,2013-04-10 10:23:00,
2013-04-10 03:38:00,38.5,36.0,30.26,West,271,0.0,-999.0,91,-99.99,,,0.00,weatherlink.com 1.10,2013-04-10 10:38:00,
2013-04-10 03:53:00,38.4,36.0,30.26,West,271,0.0,-999.0,91,-99.99,,,0.00,weatherlink.com 1.10,2013-04-10 10:53:00,
2013-04-10 04:08:00,38.5,36.0,30.25,West,271,0.0,-999.0,89,-99.99,,,0.00,weatherlink.com 1.10,2013-04-10 11:08:00,
2013-04-10 04:23:00,38.7,36.0,30.25,West,271,0.0,-999.0,89,-99.99,,,0.00,weatherlink.com 1.10,2013-04-10 11:23:00,
2013-04-10 04:38:00,38.3,36.0,30.25,West,271,0.0,-999.0,90,-99.99,,,0.00,weatherlink.com 1.10,2013-04-10 11:38:00,
2013-04-10 04:53:00,38.4,36.0,30.25,West,271,0.0,-999.0,91,-99.99,,,0.00,weatherlink.com 1.10,2013-04-10 11:53:00,
2013-04-10 05:08:00,38.4,36.0,30.25,West,271,0.0,-999.0,90,-99.99,,,0.00,weatherlink.com 1.10,2013-04-10 12:08:00,
2013-04-10 05:23:00,38.5,36.0,30.24,West,271,0.0,-999.0,89,-99.99,,,0.00,weatherlink.com 1.10,2013-04-10 12:23:00,
2013-04-10 05:38:00,38.7,36.0,30.24,West,271,0.0,-999.0,89,-99.99,,,0.00,weatherlink.com 1.10,2013-04-10 12:38:00,
2013-04-10 05:53:00,38.9,35.0,30.23,West,271,0.0,-999.0,87,-99.99,,,0.00,weatherlink.com 1.10,2013-04-10 12:53:00,
2013-04-10 06:08:00,39.1,36.0,30.23,West,271,0.0,-999.0,87,-99.99,,,0.00,weatherlink.com 1.10,2013-04-10 13:08:00,
2013-04-10 06:23:00,39.1,35.0,30.23,West,271,1.0,-999.0,86,-99.99,,,0.00,weatherlink.com 1.10,2013-04-10 13:23:00,
2013-04-10 06:38:00,39.1,36.0,30.23,West,271,0.0,-999.0,89,-99.99,,,0.00,weatherlink.com 1.10,2013-04-10 13:38:00,
2013-04-10 06:53:00,39.1,36.0,30.22,West,271,0.0,-999.0,88,-99.99,,,0.00,weatherlink.com 1.10,2013-04-10 13:53:00,
2013-04-10 07:08:00,39.4,36.0,30.23,West,271,0.0,-999.0,88,-99.99,,,0.00,weatherlink.com 1.10,2013-04-10 14:08:00,
2013-04-10 07:23:00,39.5,36.0,30.22,West,271,0.0,-999.0,88,-99.99,,,0.00,weatherlink.com 1.10,2013-04-10 14:23:00,
2013-04-10 07:38:00,40.0,37.0,30.21,West,271,0.0,-999.0,87,-99.99,,,0.00,weatherlink.com 1.10,2013-04-10 14:38:00,
2013-04-10 07:53:00,40.6,36.0,30.21,East,95,0.0,-999.0,84,-99.99,,,0.00,weatherlink.com 1.10,2013-04-10 14:53:00,
2013-04-10 08:08:00,41.3,36.0,30.20,East,95,0.0,-999.0,81,-99.99,,,0.00,weatherlink.com 1.10,2013-04-10 15:08:00,
2013-04-10 08:23:00,42.4,37.0,30.20,East,95,0.0,-999.0,80,-99.99,,,0.00,weatherlink.com 1.10,2013-04-10 15:23:00,
2013-04-10 08:38:00,43.0,36.0,30.18,East,95,1.0,-999.0,77,-99.99,,,0.00,weatherlink.com 1.10,2013-04-10 15:38:00,
2013-04-10 08:53:00,43.7,37.0,30.18,NW,309,0.0,-999.0,77,-99.99,,,0.00,weatherlink.com 1.10,2013-04-10 15:53:00,
2013-04-10 09:08:00,44.7,37.0,30.17,NW,315,0.0,-999.0,73,-99.99,,,0.00,weatherlink.com 1.10,2013-04-10 16:08:00,
2013-04-10 09:23:00,45.6,36.0,30.16,ESE,109,1.0,-999.0,70,-99.99,,,0.00,weatherlink.com 1.10,2013-04-10 16:23:00,
2013-04-10 09:39:00,46.6,36.0,30.15,SE,136,0.0,-999.0,68,-99.99,,,0.00,weatherlink.com 1.10,2013-04-10 16:39:00,
2013-04-10 09:54:00,47.0,35.0,30.14,ENE,77,1.0,-999.0,63,-99.99,,,0.00,weatherlink.com 1.10,2013-04-10 16:54:00,
2013-04-10 10:09:00,47.2,35.0,30.14,SSE,156,4.0,-999.0,64,-99.99,,,0.00,weatherlink.com 1.10,2013-04-10 17:09:00,
2013-04-10 10:24:00,47.5,36.0,30.13,East,87,0.0,-999.0,65,-99.99,,,0.00,weatherlink.com 1.10,2013-04-10 17:24:00,
2013-04-10 10:39:00,48.1,37.0,30.11,ESE,105,1.0,-999.0,65,-99.99,,,0.00,weatherlink.com 1.10,2013-04-10 17:39:00,
2013-04-10 10:54:00,48.6,38.0,30.10,East,83,0.0,-999.0,66,-99.99,,,0.00,weatherlink.com 1.10,2013-04-10 17:54:00,
2013-04-10 11:09:00,49.5,36.0,30.09,ENE,77,0.0,-999.0,61,-99.99,,,0.00,weatherlink.com 1.10,2013-04-10 18:09:00,
2013-04-10 11:24:00,50.1,37.0,30.08,ESE,115,0.0,-999.0,60,-99.99,,,0.00,weatherlink.com 1.10,2013-04-10 18:24:00,
2013-04-10 11:39:00,49.6,37.0,30.07,SE,138,2.0,-999.0,62,-99.99,,,0.00,weatherlink.com 1.10,2013-04-10 18:39:00,
2013-04-10 11:54:00,49.6,37.0,30.06,SSE,150,5.0,-999.0,62,-99.99,,,0.00,weatherlink.com 1.10,2013-04-10 18:54:00,
2013-04-10 12:09:00,49.4,38.0,30.05,East,98,0.0,-999.0,65,-99.99,,,0.00,weatherlink.com 1.10,2013-04-10 19:09:00,
2013-04-10 12:24:00,49.1,38.0,30.04,ENE,76,3.0,-999.0,66,-99.99,,,0.00,weatherlink.com 1.10,2013-04-10 19:24:00,
2013-04-10 12:39:00,49.0,38.0,30.03,East,94,0.0,-999.0,66,-99.99,,,0.00,weatherlink.com 1.10,2013-04-10 19:39:00,
2013-04-10 12:54:00,48.9,39.0,30.02,East,94,2.0,-999.0,69,-99.99,,,0.00,weatherlink.com 1.10,2013-04-10 19:54:00,
2013-04-10 13:09:00,50.0,39.0,30.02,South,173,1.0,-999.0,65,-99.99,,,0.00,weatherlink.com 1.10,2013-04-10 20:09:00,
2013-04-10 13:24:00,50.4,39.0,30.02,SSE,150,1.0,-999.0,66,-99.99,,,0.00,weatherlink.com 1.10,2013-04-10 20:24:00,
2013-04-10 13:39:00,49.6,40.0,30.01,ESE,113,1.0,-999.0,70,-99.99,,,0.01,weatherlink.com 1.10,2013-04-10 20:39:00,
2013-04-10 13:54:00,48.8,41.0,30.00,SSE,159,0.0,-999.0,75,-99.99,,,0.01,weatherlink.com 1.10,2013-04-10 20:54:00,
2013-04-10 14:09:00,48.8,42.0,29.98,East,90,1.0,-999.0,77,-99.99,,,0.01,weatherlink.com 1.10,2013-04-10 21:09:00,
2013-04-10 14:24:00,49.2,43.0,29.98,East,86,1.0,-999.0,78,-99.99,,,0.01,weatherlink.com 1.10,2013-04-10 21:24:00,
2013-04-10 14:39:00,51.3,43.0,29.96,East,94,1.0,-999.0,72,-99.99,,,0.01,weatherlink.com 1.10,2013-04-10 21:39:00,
2013-04-10 14:54:00,53.1,41.0,29.94,SSE,150,5.0,-999.0,64,-99.99,,,0.01,weatherlink.com 1.10,2013-04-10 21:54:00,
2013-04-10 15:10:00,52.1,42.0,29.94,South,185,4.0,-999.0,68,-99.99,,,0.02,weatherlink.com 1.10,2013-04-10 22:10:00,
2013-04-10 15:25:00,49.2,44.0,29.97,West,279,7.0,-999.0,82,-99.99,,,0.05,weatherlink.com 1.10,2013-04-10 22:25:00,
2013-04-10 15:40:00,47.0,43.0,29.98,SW,217,0.0,-999.0,87,-99.99,,,0.13,weatherlink.com 1.10,2013-04-10 22:40:00,
2013-04-10 15:55:00,46.8,44.0,29.97,South,183,1.0,-999.0,90,-99.99,,,0.16,weatherlink.com 1.10,2013-04-10 22:55:00,
2013-04-10 16:10:00,47.0,45.0,29.96,South,181,0.0,-999.0,91,-99.99,,,0.16,weatherlink.com 1.10,2013-04-10 23:10:00,
2013-04-10 16:25:00,47.7,46.0,29.96,SSE,163,0.0,-999.0,92,-99.99,,,0.16,weatherlink.com 1.10,2013-04-10 23:25:00,
2013-04-10 16:40:00,48.0,46.0,29.96,SSE,163,0.0,-999.0,91,-99.99,,,0.16,weatherlink.com 1.10,2013-04-10 23:40:00,
2013-04-10 16:55:00,47.8,45.0,29.95,ENE,77,3.0,-999.0,91,-99.99,,,0.16,weatherlink.com 1.10,2013-04-10 23:55:00,
2013-04-10 17:10:00,47.6,45.0,29.95,East,90,0.0,-999.0,92,-99.99,,,0.16,weatherlink.com 1.10,2013-04-11 00:10:00,
2013-04-10 17:25:00,47.8,45.0,29.96,SE,128,0.0,-999.0,91,-99.99,,,0.16,weatherlink.com 1.10,2013-04-11 00:25:00,
2013-04-10 17:40:00,48.8,47.0,29.96,SE,128,0.0,-999.0,92,-99.99,,,0.16,weatherlink.com 1.10,2013-04-11 00:40:00,
2013-04-10 17:55:00,49.3,47.0,29.96,SE,132,0.0,-999.0,91,-99.99,,,0.16,weatherlink.com 1.10,2013-04-11 00:55:00,
2013-04-10 18:10:00,49.4,47.0,29.96,SE,136,0.0,-999.0,90,-99.99,,,0.16,weatherlink.com 1.10,2013-04-11 01:10:00,
2013-04-10 18:25:00,49.4,46.0,29.96,SSW,205,5.0,-999.0,89,-99.99,,,0.16,weatherlink.com 1.10,2013-04-11 01:25:00,
2013-04-10 18:40:00,50.0,45.0,29.96,SSW,212,1.0,-999.0,83,-99.99,,,0.16,weatherlink.com 1.10,2013-04-11 01:40:00,
2013-04-10 18:55:00,49.4,45.0,29.97,WNW,288,1.0,-999.0,84,-99.99,,,0.17,weatherlink.com 1.10,2013-04-11 01:55:00,
2013-04-10 19:10:00,48.9,45.0,29.98,WNW,288,0.0,-999.0,86,-99.99,,,0.17,weatherlink.com 1.10,2013-04-11 02:10:00,
2013-04-10 19:25:00,49.3,43.0,29.98,SW,215,2.0,-999.0,78,-99.99,,,0.17,weatherlink.com 1.10,2013-04-11 02:25:00,
2013-04-10 19:40:00,49.3,42.0,29.99,WSW,255,1.0,-999.0,77,-99.99,,,0.17,weatherlink.com 1.10,2013-04-11 02:40:00,
2013-04-10 19:55:00,48.8,43.0,30.00,West,261,1.0,-999.0,79,-99.99,,,0.17,weatherlink.com 1.10,2013-04-11 02:55:00,
2013-04-10 20:10:00,48.7,42.0,30.01,WNW,285,7.0,-999.0,78,-99.99,,,0.17,weatherlink.com 1.10,2013-04-11 03:10:00,
2013-04-10 20:40:00,48.8,40.0,30.03,West,275,7.0,-999.0,73,-99.99,,,0.17,weatherlink.com 1.10,2013-04-11 03:40:00,
2013-04-10 20:55:00,48.7,41.0,30.03,WNW,288,9.0,-999.0,74,-99.99,,,0.17,weatherlink.com 1.10,2013-04-11 03:55:00,
2013-04-10 21:10:00,48.5,41.0,30.04,West,274,6.0,-999.0,74,-99.99,,,0.17,weatherlink.com 1.10,2013-04-11 04:10:00,
2013-04-10 21:25:00,48.3,40.0,30.05,West,265,4.0,-999.0,74,-99.99,,,0.17,weatherlink.com 1.10,2013-04-11 04:25:00,
2013-04-10 21:40:00,48.1,40.0,30.06,West,281,4.0,-999.0,74,-99.99,,,0.17,weatherlink.com 1.10,2013-04-11 04:40:00,
2013-04-10 21:55:00,47.8,40.0,30.07,West,275,4.0,-999.0,74,-99.99,,,0.17,weatherlink.com 1.10,2013-04-11 04:55:00,
2013-04-10 22:10:00,47.4,40.0,30.07,SSW,204,4.0,-999.0,75,-99.99,,,0.17,weatherlink.com 1.10,2013-04-11 05:10:00,
2013-04-10 22:25:00,47.1,40.0,30.07,WSW,254,3.0,-999.0,75,-99.99,,,0.17,weatherlink.com 1.10,2013-04-11 05:25:00,
2013-04-10 22:40:00,46.8,39.0,30.07,WNW,294,8.0,-999.0,73,-99.99,,,0.17,weatherlink.com 1.10,2013-04-11 05:40:00,
2013-04-10 22:55:00,46.3,38.0,30.08,SW,219,3.0,-999.0,72,-99.99,,,0.17,weatherlink.com 1.10,2013-04-11 05:55:00,
2013-04-10 23:10:00,45.6,38.0,30.08,West,273,5.0,-999.0,74,-99.99,,,0.17,weatherlink.com 1.10,2013-04-11 06:10:00,
2013-04-10 23:25:00,45.2,37.0,30.08,WNW,282,4.0,-999.0,74,-99.99,,,0.17,weatherlink.com 1.10,2013-04-11 06:25:00,
2013-04-10 23:40:00,44.9,37.0,30.08,West,259,5.0,-999.0,74,-99.99,,,0.17,weatherlink.com 1.10,2013-04-11 06:40:00,
2013-04-10 23:55:00,44.6,37.0,30.09,WNW,293,4.0,-999.0,75,-99.99,,,0.17,weatherlink.com 1.10,2013-04-11 06:55:00,